Time;durP1;ratioP1;P1;durP2;ratioP2;P2;SDS_P1;SDS_P2;PMS_P1;PMS_P2;Temp;Humidity;BMP_temperature;BMP_pressure;BME280_temperature;BME280_humidity;BME280_pressure;Samples;Min_cycle;Max_cycle;Signal;HPM_P1;HPM_P2
2023/11/04 00:00:33;;;;;;;2.17;1.77;;;;;;;2.54;100.00;90939.47;2105750;28;20020;-80
2023/11/04 00:01:34;;;;;;;1.60;1.50;;;;;;;2.56;100.00;90936.41;2112180;28;20019;-80
2023/11/04 00:02:35;;;;;;;2.55;1.45;;;;;;;2.57;100.00;90937.88;2094606;28;20066;-80
2023/11/04 00:03:36;;;;;;;2.50;1.83;;;;;;;2.52;100.00;90941.78;2097624;28;20044;-80
2023/11/04 00:04:38;;;;;;;2.13;1.30;;;;;;;2.52;100.00;90942.53;2112871;28;20043;-82
2023/11/04 00:05:39;;;;;;;2.85;1.77;;;;;;;2.61;100.00;90941.16;2104300;28;20065;-81
2023/11/04 00:06:40;;;;;;;3.33;1.63;;;;;;;2.56;100.00;90931.88;2101144;28;20027;-80
2023/11/04 00:07:41;;;;;;;2.15;1.42;;;;;;;2.66;100.00;90940.66;2111019;28;20431;-82
2023/11/04 00:08:42;;;;;;;1.92;1.35;;;;;;;2.61;100.00;90936.63;2107894;28;20024;-83
2023/11/04 00:09:43;;;;;;;2.25;1.50;;;;;;;2.69;100.00;90943.19;2109023;28;20016;-81
2023/11/04 00:10:45;;;;;;;4.25;1.83;;;;;;;2.56;100.00;90937.16;2102355;28;20058;-81
2023/11/04 00:11:45;;;;;;;2.42;1.77;;;;;;;2.51;100.00;90938.41;2103314;28;20512;-80
2023/11/04 00:12:46;;;;;;;2.35;1.77;;;;;;;2.41;100.00;90939.41;2111202;28;20027;-85
2023/11/04 00:13:47;;;;;;;2.42;1.42;;;;;;;2.59;100.00;90940.84;2116846;27;20027;-82
2023/11/04 00:14:49;;;;;;;1.77;1.50;;;;;;;2.67;100.00;90934.22;2100878;28;20027;-81
2023/11/04 00:15:50;;;;;;;1.48;1.38;;;;;;;2.57;100.00;90936.00;2090095;28;20130;-82
2023/11/04 00:16:51;;;;;;;2.75;1.88;;;;;;;2.78;100.00;90930.13;2096008;28;20473;-85
2023/11/04 00:17:54;;;;;;;3.70;1.95;;;;;;;2.87;100.00;90932.16;2109148;28;20519;-84
2023/11/04 00:18:55;;;;;;;2.00;1.60;;;;;;;2.77;100.00;90926.03;2120559;27;20076;-80
2023/11/04 00:19:56;;;;;;;2.10;1.75;;;;;;;2.58;100.00;90934.09;2102207;28;20065;-83
2023/11/04 00:21:07;;;;;;;5.07;1.58;;;;;;;2.61;100.00;90926.09;2095360;28;20031;-84
2023/11/04 00:22:08;;;;;;;1.48;1.30;;;;;;;2.70;100.00;90915.66;2109402;28;20031;-84
2023/11/04 00:23:09;;;;;;;3.13;1.75;;;;;;;2.81;100.00;90927.78;2104151;28;20020;-80
2023/11/04 00:24:10;;;;;;;4.82;1.80;;;;;;;2.75;100.00;90930.22;2093442;28;20078;-81
2023/11/04 00:25:11;;;;;;;5.60;2.33;;;;;;;2.87;100.00;90926.13;2085562;28;20029;-83
2023/11/04 00:26:12;;;;;;;4.07;2.00;;;;;;;2.79;100.00;90922.94;2094589;28;20029;-79
2023/11/04 00:27:13;;;;;;;3.00;2.15;;;;;;;2.86;100.00;90922.75;2085974;28;20029;-85
2023/11/04 00:28:15;;;;;;;4.70;2.90;;;;;;;2.84;100.00;90925.06;2087575;28;20056;-80
2023/11/04 00:29:16;;;;;;;3.67;2.60;;;;;;;2.90;100.00;90928.69;2102150;28;20020;-82
2023/11/04 00:30:17;;;;;;;3.20;2.65;;;;;;;2.86;100.00;90933.31;2106417;28;20107;-83
2023/11/04 00:31:18;;;;;;;8.52;3.80;;;;;;;2.94;100.00;90921.41;2098152;28;20494;-84
2023/11/04 00:32:19;;;;;;;4.78;2.60;;;;;;;2.78;100.00;90932.75;2104008;28;20158;-80
2023/11/04 00:33:20;;;;;;;4.13;2.17;;;;;;;2.81;100.00;90923.28;2097293;28;20435;-79
2023/11/04 00:34:21;;;;;;;6.30;3.15;;;;;;;2.67;100.00;90926.31;2096640;28;20025;-84
2023/11/04 00:35:22;;;;;;;3.05;2.10;;;;;;;2.74;100.00;90928.75;2109993;28;20078;-81
2023/11/04 00:36:23;;;;;;;4.30;2.55;;;;;;;2.71;100.00;90922.41;2089766;28;20107;-82
2023/11/04 00:37:24;;;;;;;5.65;2.60;;;;;;;2.52;100.00;90929.34;2088722;28;20028;-80
2023/11/04 00:38:25;;;;;;;5.90;3.42;;;;;;;2.77;100.00;90925.28;2106261;28;20020;-81
2023/11/04 00:39:26;;;;;;;5.50;3.25;;;;;;;2.85;100.00;90923.91;2112390;28;20039;-81
2023/11/04 00:40:27;;;;;;;4.43;2.67;;;;;;;2.82;100.00;90932.66;2111962;28;20031;-83
2023/11/04 00:41:30;;;;;;;4.25;2.45;;;;;;;2.83;100.00;90936.03;2101652;28;20036;-81
2023/11/04 00:42:31;;;;;;;3.13;1.88;;;;;;;2.84;100.00;90937.50;2103162;28;20020;-80
2023/11/04 00:43:33;;;;;;;3.13;1.80;;;;;;;2.81;100.00;90936.47;2094097;28;20028;-82
2023/11/04 00:44:34;;;;;;;1.65;1.50;;;;;;;2.96;100.00;90934.91;2089165;28;20048;-83
2023/11/04 00:45:35;;;;;;;2.95;1.77;;;;;;;3.10;100.00;90939.03;2099341;28;20111;-79
2023/11/04 00:46:38;;;;;;;4.22;1.90;;;;;;;3.13;100.00;90940.81;2085686;28;20465;-83
2023/11/04 00:47:39;;;;;;;2.85;1.35;;;;;;;3.07;100.00;90936.47;2088200;28;20074;-81
2023/11/04 00:48:40;;;;;;;1.45;1.35;;;;;;;3.01;100.00;90942.28;2097659;28;20032;-81
2023/11/04 00:49:41;;;;;;;1.88;1.70;;;;;;;2.92;100.00;90936.91;2103742;28;20028;-82
2023/11/04 00:50:42;;;;;;;2.20;1.38;;;;;;;2.86;100.00;90932.56;2107246;28;20020;-84
2023/11/04 00:51:43;;;;;;;1.40;1.25;;;;;;;2.81;100.00;90928.56;2092356;28;20393;-82
2023/11/04 00:52:44;;;;;;;1.35;1.15;;;;;;;2.77;100.00;90933.19;2096963;28;20028;-80
2023/11/04 00:53:45;;;;;;;1.52;0.93;;;;;;;2.78;100.00;90932.75;2105308;28;20027;-83
2023/11/04 00:54:46;;;;;;;1.20;1.10;;;;;;;2.71;100.00;90929.59;2095081;28;20017;-85
2023/11/04 00:55:48;;;;;;;1.40;1.00;;;;;;;2.61;100.00;90934.00;2102681;28;20060;-82
2023/11/04 00:56:49;;;;;;;1.13;1.00;;;;;;;2.58;100.00;90928.81;2097165;28;20020;-79
2023/11/04 00:57:50;;;;;;;1.55;1.08;;;;;;;2.45;100.00;90934.78;2095081;28;20016;-81
2023/11/04 00:58:52;;;;;;;1.20;0.85;;;;;;;2.55;100.00;90932.28;2095212;28;20020;-84
2023/11/04 00:59:53;;;;;;;0.73;0.70;;;;;;;2.56;100.00;90941.69;2096647;28;20076;-84
2023/11/04 01:00:54;;;;;;;2.05;1.00;;;;;;;2.36;100.00;90942.56;2097590;28;20798;-85
2023/11/04 01:01:54;;;;;;;1.10;0.93;;;;;;;2.45;100.00;90934.78;2095679;28;20078;-83
2023/11/04 01:02:56;;;;;;;1.20;0.80;;;;;;;2.51;100.00;90935.78;2085388;28;20497;-81
2023/11/04 01:03:57;;;;;;;0.90;0.55;;;;;;;2.59;100.00;90935.56;2096546;28;20496;-82
2023/11/04 01:04:58;;;;;;;0.90;0.68;;;;;;;2.63;100.00;90938.84;2102510;28;20027;-81
2023/11/04 01:05:59;;;;;;;0.60;0.60;;;;;;;2.90;100.00;90941.88;2097680;28;20113;-81
2023/11/04 01:07:00;;;;;;;0.50;0.50;;;;;;;2.90;100.00;90926.03;2095130;28;20039;-81
2023/11/04 01:08:01;;;;;;;0.40;0.40;;;;;;;3.09;100.00;90934.19;2102044;28;20117;-79
2023/11/04 01:09:03;;;;;;;0.60;0.60;;;;;;;3.03;100.00;90932.06;2100035;28;20539;-81
2023/11/04 01:10:04;;;;;;;1.20;0.60;;;;;;;2.91;100.00;90927.50;2094325;28;20028;-80
2023/11/04 01:11:05;;;;;;;1.02;0.80;;;;;;;2.81;100.00;90933.06;2093968;28;20020;-82
2023/11/04 01:12:06;;;;;;;1.42;1.20;;;;;;;2.88;100.00;90930.25;2104501;28;20369;-81
2023/11/04 01:13:07;;;;;;;1.52;0.90;;;;;;;2.90;100.00;90933.94;2105814;28;20023;-82
2023/11/04 01:14:09;;;;;;;2.90;1.10;;;;;;;2.88;100.00;90933.63;2103179;28;20016;-83
2023/11/04 01:15:12;;;;;;;0.80;0.80;;;;;;;2.76;100.00;90931.69;2106009;28;20024;-81
2023/11/04 01:16:14;;;;;;;1.85;1.23;;;;;;;2.74;100.00;90941.94;2093805;28;20358;-83
2023/11/04 01:17:16;;;;;;;1.70;1.10;;;;;;;2.77;100.00;90931.28;2100220;28;20043;-81
2023/11/04 01:18:21;;;;;;;2.83;1.27;;;;;;;2.83;100.00;90925.50;2109978;28;20069;-81
2023/11/04 01:19:22;;;;;;;1.42;1.13;;;;;;;2.80;100.00;90934.97;2110110;28;20026;-82
2023/11/04 01:20:23;;;;;;;2.50;1.20;;;;;;;2.82;100.00;90937.22;2103667;28;20016;-82
2023/11/04 01:21:24;;;;;;;0.82;0.82;;;;;;;2.77;100.00;90926.03;2097422;28;20020;-81
2023/11/04 01:22:25;;;;;;;1.30;0.70;;;;;;;2.87;100.00;90932.16;2088318;28;20103;-81
2023/11/04 01:23:26;;;;;;;1.63;0.93;;;;;;;3.00;100.00;90929.53;2095234;28;20616;-81
2023/11/04 01:24:28;;;;;;;1.98;0.80;;;;;;;3.21;100.00;90925.53;2103297;28;20034;-84
2023/11/04 01:25:29;;;;;;;0.60;0.60;;;;;;;3.15;100.00;90927.19;2100384;28;20469;-82
2023/11/04 01:26:30;;;;;;;1.10;0.80;;;;;;;3.26;100.00;90927.63;2110140;28;20038;-82
2023/11/04 01:27:31;;;;;;;2.33;0.75;;;;;;;3.31;100.00;90926.34;2121383;27;20016;-82
2023/11/04 01:28:32;;;;;;;1.55;0.60;;;;;;;3.35;100.00;90921.72;2109156;28;20734;-82
2023/11/04 01:29:33;;;;;;;0.93;0.52;;;;;;;3.31;100.00;90923.72;2109486;27;20016;-81
2023/11/04 01:30:34;;;;;;;0.68;0.60;;;;;;;3.33;100.00;90919.47;2119091;27;20593;-81
2023/11/04 01:31:35;;;;;;;1.65;0.77;;;;;;;3.36;100.00;90923.91;2120960;27;20455;-80
2023/11/04 01:32:37;;;;;;;0.40;0.40;;;;;;;3.36;100.00;90923.19;2109936;28;20107;-83
2023/11/04 01:33:38;;;;;;;1.58;0.63;;;;;;;3.24;100.00;90919.38;2111374;28;20019;-80
2023/11/04 01:34:39;;;;;;;1.02;0.57;;;;;;;3.15;100.00;90917.38;2109427;28;20069;-82
2023/11/04 01:35:40;;;;;;;0.68;0.60;;;;;;;3.32;100.00;90909.34;2102279;28;20055;-78
2023/11/04 01:36:42;;;;;;;1.42;0.70;;;;;;;3.31;100.00;90913.91;2101248;28;20114;-79
2023/11/04 01:37:43;;;;;;;0.70;0.70;;;;;;;3.30;100.00;90919.59;2103795;28;20024;-79
2023/11/04 01:38:44;;;;;;;2.17;0.80;;;;;;;3.38;100.00;90921.59;2101178;28;20048;-79
2023/11/04 01:39:46;;;;;;;3.45;0.70;;;;;;;3.38;100.00;90918.97;2101476;28;20373;-84
2023/11/04 01:40:51;;;;;;;1.48;0.70;;;;;;;3.35;100.00;90914.53;2121215;27;20046;-84
2023/11/04 01:41:52;;;;;;;2.38;0.98;;;;;;;3.44;100.00;90919.91;2104080;28;20027;-81
2023/11/04 01:42:53;;;;;;;0.80;0.80;;;;;;;3.47;100.00;90919.06;2090184;28;20832;-80
2023/11/04 01:43:54;;;;;;;1.35;1.00;;;;;;;3.51;100.00;90913.66;2100675;28;20012;-80
2023/11/04 01:44:55;;;;;;;3.78;1.00;;;;;;;3.39;100.00;90919.69;2109634;28;20016;-78
2023/11/04 01:46:09;;;;;;;1.55;0.90;;;;;;;3.26;100.00;90923.09;2094315;28;20046;-81
2023/11/04 01:47:25;;;;;;;1.75;1.08;;;;;;;3.41;100.00;90920.75;2101031;28;20047;-81
2023/11/04 01:48:26;;;;;;;2.03;1.27;;;;;;;3.54;100.00;90907.53;2105642;28;20028;-80
2023/11/04 01:49:27;;;;;;;1.38;1.10;;;;;;;3.54;100.00;90910.91;2103637;28;20024;-80
2023/11/04 01:50:28;;;;;;;1.17;1.08;;;;;;;3.49;100.00;90916.72;2110759;28;20058;-83
2023/11/04 01:51:30;;;;;;;1.27;1.17;;;;;;;3.46;100.00;90920.19;2110326;28;20101;-86
2023/11/04 01:52:36;;;;;;;1.95;1.35;;;;;;;3.59;100.00;90914.16;2102511;28;20035;-79
2023/11/04 01:53:39;;;;;;;2.40;1.55;;;;;;;3.45;100.00;90910.81;2094922;28;20477;-85
2023/11/04 01:54:40;;;;;;;1.20;1.10;;;;;;;3.67;100.00;90910.88;2096697;28;20017;-81
2023/11/04 01:55:42;;;;;;;1.25;1.10;;;;;;;3.72;100.00;90909.59;2105330;28;20065;-85
2023/11/04 01:56:43;;;;;;;2.88;1.58;;;;;;;3.66;100.00;90917.34;2105166;28;20023;-79
2023/11/04 01:57:45;;;;;;;2.20;1.40;;;;;;;3.68;100.00;90916.91;2096168;28;20020;-82
2023/11/04 01:58:47;;;;;;;1.40;1.13;;;;;;;3.69;100.00;90913.13;2097012;28;20020;-84
2023/11/04 01:59:48;;;;;;;1.92;1.08;;;;;;;3.59;100.00;90924.72;2111336;28;20026;-85
2023/11/04 02:00:49;;;;;;;2.50;1.30;;;;;;;3.70;100.00;90915.31;2119691;27;20024;-82
2023/11/04 02:01:50;;;;;;;1.17;1.08;;;;;;;3.82;100.00;90913.06;2117090;27;20019;-81
2023/11/04 02:02:52;;;;;;;1.80;1.50;;;;;;;3.81;100.00;90914.22;2118679;27;20047;-81
2023/11/04 02:03:53;;;;;;;2.17;1.40;;;;;;;3.90;100.00;90909.75;2108020;28;20020;-81
2023/11/04 02:04:55;;;;;;;1.48;1.38;;;;;;;3.77;100.00;90911.69;2105600;28;20524;-79
2023/11/04 02:05:56;;;;;;;1.27;1.15;;;;;;;3.76;100.00;90907.59;2103544;28;20079;-83
2023/11/04 02:06:57;;;;;;;1.60;1.30;;;;;;;3.72;100.00;90902.41;2095309;28;20419;-81
2023/11/04 02:07:59;;;;;;;1.20;1.10;;;;;;;3.66;100.00;90906.78;2095838;28;20028;-80
2023/11/04 02:09:00;;;;;;;2.03;1.50;;;;;;;3.69;100.00;90910.47;2110044;28;20668;-82
2023/11/04 02:10:01;;;;;;;1.55;1.33;;;;;;;3.74;100.00;90902.00;2102726;28;20079;-82
2023/11/04 02:11:05;;;;;;;1.60;1.30;;;;;;;3.77;100.00;90904.50;2093383;28;20020;-82
2023/11/04 02:12:06;;;;;;;2.85;1.23;;;;;;;3.69;100.00;90916.50;2095289;28;20021;-79
2023/11/04 02:13:08;;;;;;;1.58;1.20;;;;;;;3.77;100.00;90899.22;2096002;28;20162;-82
2023/11/04 02:14:09;;;;;;;2.72;1.02;;;;;;;3.82;100.00;90905.13;2104606;28;20461;-79
2023/11/04 02:15:16;;;;;;;2.00;1.38;;;;;;;3.74;100.00;90899.38;2108414;27;20027;-78
2023/11/04 02:16:17;;;;;;;1.20;1.10;;;;;;;3.73;100.00;90901.28;2105241;28;20110;-82
2023/11/04 02:17:19;;;;;;;1.17;1.08;;;;;;;3.83;100.00;90896.81;2111964;28;20027;-84
2023/11/04 02:18:20;;;;;;;1.20;0.93;;;;;;;3.82;100.00;90897.97;2118085;27;20027;-79
2023/11/04 02:19:21;;;;;;;1.20;1.10;;;;;;;3.78;100.00;90895.44;2112569;28;20023;-79
2023/11/04 02:20:24;;;;;;;1.20;1.00;;;;;;;3.74;100.00;90891.44;2102364;28;20050;-79
2023/11/04 02:21:26;;;;;;;1.25;1.15;;;;;;;3.87;100.00;90894.03;2110052;28;20028;-82
2023/11/04 02:23:58;;;;;;;0.80;0.80;;;;;;;2.79;100.00;90904.47;2041701;27;20187;-83
2023/11/04 02:24:59;;;;;;;2.17;0.90;;;;;;;2.89;100.00;90895.50;2047541;27;20141;-80
2023/11/04 02:26:00;;;;;;;1.25;0.80;;;;;;;2.96;100.00;90899.84;2041395;27;20019;-81
2023/11/04 02:27:01;;;;;;;0.90;0.90;;;;;;;3.14;100.00;90904.59;2037274;27;20486;-82
2023/11/04 02:28:04;;;;;;;2.45;1.00;;;;;;;3.11;100.00;90906.19;2064174;27;20031;-86
2023/11/04 02:29:05;;;;;;;1.08;0.98;;;;;;;3.02;100.00;90914.00;2086444;27;20110;-80
2023/11/04 02:30:07;;;;;;;2.30;1.00;;;;;;;3.03;100.00;90897.03;2093962;27;20071;-79
2023/11/04 02:31:08;;;;;;;3.97;0.85;;;;;;;3.00;100.00;90906.50;2096078;27;20106;-80
2023/11/04 02:32:09;;;;;;;0.73;0.73;;;;;;;3.03;100.00;90895.13;2116822;27;20027;-84
2023/11/04 02:33:10;;;;;;;1.25;1.13;;;;;;;2.86;100.00;90900.91;2115428;27;20027;-82
2023/11/04 02:34:11;;;;;;;0.80;0.80;;;;;;;2.87;100.00;90897.13;2112186;28;20514;-82
2023/11/04 02:35:14;;;;;;;1.00;0.88;;;;;;;3.00;100.00;90897.84;2102903;28;20024;-79
2023/11/04 02:36:15;;;;;;;1.13;1.05;;;;;;;3.02;100.00;90893.63;2120976;28;20041;-80
2023/11/04 02:37:16;;;;;;;1.95;1.00;;;;;;;3.05;100.00;90886.78;2112917;28;20500;-81
2023/11/04 02:38:18;;;;;;;1.77;1.00;;;;;;;3.01;100.00;90894.78;2112969;28;20023;-80
2023/11/04 02:39:19;;;;;;;1.17;0.90;;;;;;;3.05;100.00;90886.78;2121359;28;20102;-80
2023/11/04 02:40:21;;;;;;;1.02;0.82;;;;;;;3.15;100.00;90890.25;2108367;28;20084;-79
2023/11/04 02:41:22;;;;;;;1.70;1.00;;;;;;;3.18;100.00;90889.41;2104383;28;20027;-83
2023/11/04 02:42:23;;;;;;;0.70;0.70;;;;;;;3.21;100.00;90893.84;2103787;28;20090;-82
2023/11/04 02:43:24;;;;;;;1.15;0.80;;;;;;;3.32;100.00;90875.03;2111536;28;20016;-80
2023/11/04 02:44:25;;;;;;;0.73;0.70;;;;;;;3.38;100.00;90887.28;2119921;28;20055;-81
2023/11/04 02:45:27;;;;;;;1.10;0.80;;;;;;;3.27;100.00;90884.22;2118884;28;20078;-85
2023/11/04 02:46:30;;;;;;;1.38;0.80;;;;;;;3.25;100.00;90883.91;2120081;28;20026;-83
2023/11/04 02:47:32;;;;;;;1.05;0.90;;;;;;;3.18;100.00;90884.13;2045347;28;20024;-84
2023/11/04 02:48:32;;;;;;;1.65;0.70;;;;;;;3.17;100.00;90883.38;2027738;28;20024;-80
2023/11/04 02:49:33;;;;;;;0.82;0.82;;;;;;;3.21;100.00;90888.56;2045279;27;21619;-79
2023/11/04 02:50:35;;;;;;;0.60;0.60;;;;;;;3.19;100.00;90885.59;2049420;28;20039;-81
2023/11/04 02:51:36;;;;;;;0.75;0.70;;;;;;;3.11;100.00;90890.34;2065522;28;20246;-78
2023/11/04 02:52:37;;;;;;;2.08;0.68;;;;;;;3.05;100.00;90886.78;2075877;28;20070;-83
2023/11/04 02:53:39;;;;;;;0.70;0.70;;;;;;;3.09;100.00;90886.66;2076975;28;20024;-80
2023/11/04 02:54:39;;;;;;;1.75;0.73;;;;;;;3.18;100.00;90889.41;2080474;28;20024;-78
2023/11/04 02:55:41;;;;;;;1.30;0.73;;;;;;;3.07;100.00;90883.69;2112970;27;20028;-79
2023/11/04 02:56:41;;;;;;;2.35;0.70;;;;;;;3.10;100.00;90886.22;2116949;28;20047;-81
2023/11/04 02:57:42;;;;;;;0.73;0.73;;;;;;;3.09;100.00;90884.75;2119704;28;20026;-82
2023/11/04 02:58:43;;;;;;;0.80;0.63;;;;;;;3.17;100.00;90888.66;2112694;28;20806;-82
2023/11/04 02:59:44;;;;;;;0.75;0.60;;;;;;;3.32;100.00;90880.31;2117821;28;20027;-81
2023/11/04 03:00:45;;;;;;;1.90;0.60;;;;;;;3.36;100.00;90886.94;2121193;28;20590;-77
2023/11/04 03:01:46;;;;;;;0.38;0.38;;;;;;;3.23;100.00;90888.88;2112474;28;20511;-80
2023/11/04 03:02:47;;;;;;;0.40;0.40;;;;;;;3.27;100.00;90886.88;2119648;27;20031;-79
2023/11/04 03:03:48;;;;;;;0.43;0.43;;;;;;;3.22;100.00;90897.97;2112520;28;20016;-82
2023/11/04 03:04:49;;;;;;;0.57;0.45;;;;;;;3.24;100.00;90893.72;2111645;28;20028;-82
2023/11/04 03:05:50;;;;;;;0.40;0.40;;;;;;;3.15;100.00;90890.25;2112335;28;20028;-78
2023/11/04 03:06:58;;;;;;;1.05;0.50;;;;;;;3.15;100.00;90888.34;2104453;28;20025;-82
2023/11/04 03:07:59;;;;;;;0.43;0.43;;;;;;;3.11;100.00;90882.44;2110921;28;20095;-83
2023/11/04 03:09:00;;;;;;;0.82;0.50;;;;;;;3.18;100.00;90881.47;2110600;28;20012;-81
2023/11/04 03:10:02;;;;;;;0.60;0.50;;;;;;;3.19;100.00;90875.78;2112638;28;20048;-79
2023/11/04 03:11:03;;;;;;;0.60;0.40;;;;;;;3.22;100.00;90885.50;2104367;28;20024;-78
2023/11/04 03:12:05;;;;;;;0.82;0.50;;;;;;;3.12;100.00;90883.94;2103858;28;20043;-79
2023/11/04 03:13:06;;;;;;;0.40;0.40;;;;;;;3.16;100.00;90875.88;2118036;27;20027;-79
2023/11/04 03:14:07;;;;;;;0.57;0.47;;;;;;;3.10;100.00;90878.31;2108900;28;20030;-81
2023/11/04 03:15:08;;;;;;;0.45;0.40;;;;;;;3.22;100.00;90872.28;2029298;28;20035;-80
2023/11/04 03:16:17;;;;;;;0.95;0.30;;;;;;;3.29;100.00;90873.97;2034465;27;20023;-80
2023/11/04 03:17:18;;;;;;;0.40;0.40;;;;;;;3.22;100.00;90868.91;2046113;28;20027;-80
2023/11/04 03:18:19;;;;;;;0.40;0.40;;;;;;;3.34;100.00;90859.50;2049329;28;20044;-81
2023/11/04 03:19:20;;;;;;;0.40;0.40;;;;;;;3.39;100.00;90864.25;2050483;28;20048;-82
2023/11/04 03:20:21;;;;;;;0.40;0.40;;;;;;;3.41;100.00;90859.28;2070988;28;20059;-80
2023/11/04 03:21:22;;;;;;;0.30;0.30;;;;;;;3.52;100.00;90862.31;2088373;27;20026;-79
2023/11/04 03:22:23;;;;;;;0.50;0.50;;;;;;;3.61;100.00;90862.41;2103718;28;20445;-78
2023/11/04 03:23:24;;;;;;;0.57;0.47;;;;;;;3.52;100.00;90857.03;2107181;28;20441;-80
2023/11/04 03:24:25;;;;;;;0.73;0.40;;;;;;;3.56;100.00;90855.03;2112175;28;20042;-80
2023/11/04 03:25:26;;;;;;;0.40;0.40;;;;;;;3.40;100.00;90853.25;2100552;28;20542;-80
2023/11/04 03:26:27;;;;;;;0.52;0.50;;;;;;;3.44;100.00;90853.88;2110410;28;20079;-81
2023/11/04 03:27:28;;;;;;;0.60;0.60;;;;;;;3.48;100.00;90856.41;2120864;28;20031;-78
2023/11/04 03:28:28;;;;;;;2.42;0.47;;;;;;;3.52;100.00;90860.41;2117668;28;20027;-78
2023/11/04 03:29:29;;;;;;;0.43;0.40;;;;;;;3.47;100.00;90858.31;2119280;28;20145;-80
2023/11/04 03:30:34;;;;;;;0.40;0.40;;;;;;;3.42;100.00;90850.91;2117179;27;20141;-80
2023/11/04 03:31:35;;;;;;;0.30;0.30;;;;;;;3.31;100.00;90850.53;2111458;28;20024;-81
2023/11/04 03:32:36;;;;;;;0.82;0.50;;;;;;;3.37;100.00;90851.47;2110131;28;20032;-83
2023/11/04 03:33:38;;;;;;;0.40;0.40;;;;;;;3.24;100.00;90862.03;2118661;27;20357;-82
2023/11/04 03:34:39;;;;;;;0.75;0.50;;;;;;;3.30;100.00;90853.59;2118648;27;20106;-81
2023/11/04 03:35:40;;;;;;;0.50;0.50;;;;;;;3.32;100.00;90846.72;2059679;28;20097;-82
2023/11/04 03:36:41;;;;;;;0.68;0.50;;;;;;;3.32;100.00;90852.00;1993134;28;22108;-80
2023/11/04 03:37:44;;;;;;;1.05;0.50;;;;;;;3.37;100.00;90853.38;2040311;27;20031;-78
2023/11/04 03:38:45;;;;;;;0.63;0.50;;;;;;;3.36;100.00;90852.63;2042173;28;20074;-81
2023/11/04 03:39:46;;;;;;;0.55;0.50;;;;;;;3.35;100.00;90853.81;2037810;28;20439;-80
2023/11/04 03:40:47;;;;;;;0.45;0.43;;;;;;;3.32;100.00;90856.53;2051725;28;20147;-79
2023/11/04 03:41:48;;;;;;;0.65;0.65;;;;;;;3.34;100.00;90854.97;2060884;28;20500;-79
2023/11/04 03:42:48;;;;;;;0.50;0.50;;;;;;;3.36;100.00;90847.34;2078092;28;20974;-82
2023/11/04 03:43:50;;;;;;;0.40;0.40;;;;;;;3.28;100.00;90848.72;2088568;28;22199;-81
2023/11/04 03:44:51;;;;;;;0.40;0.40;;;;;;;3.22;100.00;90850.44;2089765;28;20107;-81
2023/11/04 03:45:52;;;;;;;0.35;0.35;;;;;;;3.22;100.00;90853.81;2100162;28;20373;-79
2023/11/04 03:46:56;;;;;;;0.38;0.38;;;;;;;3.16;100.00;90852.88;2114753;28;20015;-82
2023/11/04 03:47:57;;;;;;;1.27;0.50;;;;;;;3.24;100.00;90861.31;2113977;28;20077;-79
2023/11/04 03:48:58;;;;;;;0.55;0.43;;;;;;;3.14;100.00;90851.81;2106659;28;20110;-83
2023/11/04 03:49:59;;;;;;;0.30;0.30;;;;;;;3.24;100.00;90853.38;2098110;28;20035;-82
2023/11/04 03:51:00;;;;;;;0.35;0.35;;;;;;;3.21;100.00;90856.88;2112233;28;20024;-81
2023/11/04 03:52:01;;;;;;;0.82;0.50;;;;;;;3.22;100.00;90850.44;2113773;28;20024;-80
2023/11/04 03:53:02;;;;;;;0.38;0.38;;;;;;;3.25;100.00;90846.97;2114690;28;20015;-82
2023/11/04 03:54:04;;;;;;;0.50;0.40;;;;;;;3.14;100.00;90847.28;2110845;28;20423;-82
2023/11/04 03:55:05;;;;;;;0.50;0.40;;;;;;;3.15;100.00;90848.75;2114974;28;20021;-78
2023/11/04 03:56:06;;;;;;;0.40;0.40;;;;;;;3.16;100.00;90852.88;2113013;28;20432;-81
2023/11/04 03:57:07;;;;;;;0.50;0.50;;;;;;;3.15;100.00;90853.28;2106448;28;20034;-80
2023/11/04 03:58:10;;;;;;;0.40;0.40;;;;;;;3.15;100.00;90848.75;2105749;28;20039;-83
2023/11/04 03:59:12;;;;;;;0.40;0.40;;;;;;;3.18;100.00;90844.53;2113614;28;20019;-80
2023/11/04 04:00:14;;;;;;;1.15;0.50;;;;;;;3.27;100.00;90848.00;2115365;28;20028;-82
2023/11/04 04:01:15;;;;;;;0.55;0.40;;;;;;;3.28;100.00;90848.72;2115774;28;20024;-80
2023/11/04 04:02:16;;;;;;;0.50;0.40;;;;;;;3.16;100.00;90847.59;2115597;28;20034;-80
2023/11/04 04:03:17;;;;;;;1.52;0.50;;;;;;;3.18;100.00;90850.56;2114749;28;20027;-80
2023/11/04 04:04:18;;;;;;;1.23;0.50;;;;;;;3.21;100.00;90852.34;2110322;28;20464;-82
2023/11/04 04:05:19;;;;;;;0.40;0.40;;;;;;;3.26;100.00;90845.78;2111263;28;20110;-80
2023/11/04 04:06:20;;;;;;;0.50;0.50;;;;;;;3.29;100.00;90852.84;2113999;28;20946;-79
2023/11/04 04:07:21;;;;;;;0.40;0.40;;;;;;;3.32;100.00;90844.09;2041714;28;23215;-82
2023/11/04 04:08:22;;;;;;;0.30;0.30;;;;;;;3.32;100.00;90845.97;2023966;28;20031;-78
2023/11/04 04:09:23;;;;;;;0.40;0.40;;;;;;;3.24;100.00;90854.13;2032136;28;20047;-79
2023/11/04 04:10:27;;;;;;;0.40;0.40;;;;;;;3.32;100.00;90846.72;2036274;28;20146;-79
2023/11/04 04:11:28;;;;;;;0.47;0.47;;;;;;;3.32;100.00;90838.81;2036596;28;20027;-79
2023/11/04 04:12:29;;;;;;;0.45;0.45;;;;;;;3.38;100.00;90833.72;2048335;28;20078;-77
2023/11/04 04:13:30;;;;;;;1.50;0.50;;;;;;;3.39;100.00;90829.94;2059573;28;20024;-80
2023/11/04 04:14:31;;;;;;;0.77;0.55;;;;;;;3.46;100.00;90829.69;2075580;28;20657;-81
2023/11/04 04:15:32;;;;;;;0.60;0.60;;;;;;;3.42;100.00;90829.06;2097770;28;20027;-82
2023/11/04 04:16:33;;;;;;;0.40;0.40;;;;;;;3.37;100.00;90832.97;2105908;28;20032;-78
2023/11/04 04:17:34;;;;;;;0.30;0.30;;;;;;;3.41;100.00;90825.69;2113544;28;20023;-80
2023/11/04 04:20:32;;;;;;;0.43;0.43;;;;;;;3.44;100.00;90830.13;2112320;28;20016;-83
2023/11/04 04:21:33;;;;;;;0.50;0.40;;;;;;;3.31;100.00;90828.69;2113635;28;20902;-81
2023/11/04 04:22:36;;;;;;;1.25;0.40;;;;;;;3.47;100.00;90829.28;2110338;28;20028;-82
2023/11/04 04:23:37;;;;;;;1.33;0.40;;;;;;;3.37;100.00;90824.31;2112792;28;20058;-81
2023/11/04 04:24:39;;;;;;;0.40;0.40;;;;;;;3.48;100.00;90832.66;2112984;28;20024;-80
2023/11/04 04:25:40;;;;;;;1.23;0.50;;;;;;;3.45;100.00;90825.56;2112557;28;20066;-80
2023/11/04 04:26:41;;;;;;;0.32;0.32;;;;;;;3.44;100.00;90829.38;2111830;28;20102;-79
2023/11/04 04:27:42;;;;;;;0.40;0.40;;;;;;;3.37;100.00;90826.97;2105394;28;20053;-80
2023/11/04 04:28:43;;;;;;;0.40;0.40;;;;;;;3.32;100.00;90824.88;2023690;28;20146;-80
2023/11/04 04:29:44;;;;;;;0.65;0.43;;;;;;;3.27;100.00;90826.88;2029414;28;21084;-78
2023/11/04 04:30:45;;;;;;;0.40;0.40;;;;;;;3.34;100.00;90830.47;2034254;28;20130;-79
2023/11/04 04:31:46;;;;;;;0.40;0.40;;;;;;;3.41;100.00;90827.59;2052369;28;20555;-80
2023/11/04 04:32:48;;;;;;;0.30;0.30;;;;;;;3.36;100.00;90820.94;2062228;28;20038;-81
2023/11/04 04:33:49;;;;;;;0.75;0.55;;;;;;;3.42;100.00;90821.13;2078930;28;20043;-81
2023/11/04 04:34:51;;;;;;;0.98;0.50;;;;;;;3.36;100.00;90818.31;2088551;28;20031;-81
2023/11/04 04:35:52;;;;;;;0.50;0.50;;;;;;;3.37;100.00;90806.56;2089921;28;20032;-80
2023/11/04 04:36:54;;;;;;;0.55;0.55;;;;;;;3.43;100.00;90812.81;2100925;28;20035;-80
2023/11/04 04:37:54;;;;;;;0.40;0.40;;;;;;;3.39;100.00;90814.81;2106338;28;20023;-79
2023/11/04 04:38:55;;;;;;;0.40;0.40;;;;;;;3.43;100.00;90817.34;2114652;28;20023;-79
2023/11/04 04:39:56;;;;;;;1.52;0.50;;;;;;;3.47;100.00;90820.63;2114472;28;20050;-80
2023/11/04 04:40:57;;;;;;;0.52;0.52;;;;;;;3.49;100.00;90821.66;2105908;28;20046;-79
2023/11/04 04:41:58;;;;;;;0.75;0.50;;;;;;;3.58;100.00;90821.00;2104572;28;20019;-79
2023/11/04 04:42:59;;;;;;;0.40;0.40;;;;;;;3.48;100.00;90811.53;2114259;28;20019;-83
2023/11/04 04:44:02;;;;;;;0.40;0.40;;;;;;;3.62;100.00;90811.06;2112704;28;20019;-81
2023/11/04 04:45:03;;;;;;;1.17;0.40;;;;;;;3.54;100.00;90820.38;2111652;28;20015;-80
2023/11/04 04:46:04;;;;;;;0.70;0.60;;;;;;;3.50;100.00;90820.47;2114619;28;20016;-82
2023/11/04 04:47:05;;;;;;;0.60;0.60;;;;;;;3.62;100.00;90815.59;2101478;28;20012;-79
2023/11/04 04:48:06;;;;;;;0.57;0.50;;;;;;;3.57;100.00;90805.59;2114424;28;20019;-80
2023/11/04 04:49:08;;;;;;;0.50;0.50;;;;;;;3.53;100.00;90806.44;2114627;28;20506;-82
2023/11/04 04:50:09;;;;;;;0.40;0.40;;;;;;;3.60;100.00;90812.63;2110412;28;20104;-79
2023/11/04 04:51:10;;;;;;;0.50;0.50;;;;;;;3.57;100.00;90811.59;2114431;28;20023;-79
2023/11/04 04:52:11;;;;;;;0.55;0.55;;;;;;;3.53;100.00;90809.06;2114460;28;20024;-81
2023/11/04 04:53:14;;;;;;;0.65;0.65;;;;;;;3.64;100.00;90808.69;2105475;28;20078;-83